地図

経路データ

SID SEASON NUMBER BASIN SUBBASIN NAME ISO_TIME NATURE LAT LON WMO_WIND WMO_PRES WMO_AGENCY TRACK_TYPE DIST2LAND LANDFALL IFLAG USA_AGENCY USA_ATCF_ID USA_LAT USA_LON USA_RECORD USA_STATUS USA_WIND USA_PRES USA_SSHS USA_R34_NE USA_R34_SE USA_R34_SW USA_R34_NW USA_R50_NE USA_R50_SE USA_R50_SW USA_R50_NW USA_R64_NE USA_R64_SE USA_R64_SW USA_R64_NW USA_POCI USA_ROCI USA_RMW USA_EYE TOKYO_LAT TOKYO_LON TOKYO_GRADE TOKYO_WIND TOKYO_PRES TOKYO_R50_DIR TOKYO_R50_LONG TOKYO_R50_SHORT TOKYO_R30_DIR TOKYO_R30_LONG TOKYO_R30_SHORT TOKYO_LAND CMA_LAT CMA_LON CMA_CAT CMA_WIND CMA_PRES HKO_LAT HKO_LON HKO_CAT HKO_WIND HKO_PRES NEWDELHI_LAT NEWDELHI_LON NEWDELHI_GRADE NEWDELHI_WIND NEWDELHI_PRES NEWDELHI_CI NEWDELHI_DP NEWDELHI_POCI REUNION_LAT REUNION_LON REUNION_TYPE REUNION_WIND REUNION_PRES REUNION_TNUM REUNION_CI REUNION_RMW REUNION_R34_NE REUNION_R34_SE REUNION_R34_SW REUNION_R34_NW REUNION_R50_NE REUNION_R50_SE REUNION_R50_SW REUNION_R50_NW REUNION_R64_NE REUNION_R64_SE REUNION_R64_SW REUNION_R64_NW BOM_LAT BOM_LON BOM_TYPE BOM_WIND BOM_PRES BOM_TNUM BOM_CI BOM_RMW BOM_R34_NE BOM_R34_SE BOM_R34_SW BOM_R34_NW BOM_R50_NE BOM_R50_SE BOM_R50_SW BOM_R50_NW BOM_R64_NE BOM_R64_SE BOM_R64_SW BOM_R64_NW BOM_ROCI BOM_POCI BOM_EYE BOM_POS_METHOD BOM_PRES_METHOD NADI_LAT NADI_LON NADI_CAT NADI_WIND NADI_PRES WELLINGTON_LAT WELLINGTON_LON WELLINGTON_WIND WELLINGTON_PRES DS824_LAT DS824_LON DS824_STAGE DS824_WIND DS824_PRES TD9636_LAT TD9636_LON TD9636_STAGE TD9636_WIND TD9636_PRES TD9635_LAT TD9635_LON TD9635_WIND TD9635_PRES TD9635_ROCI NEUMANN_LAT NEUMANN_LON NEUMANN_CLASS NEUMANN_WIND NEUMANN_PRES MLC_LAT MLC_LON MLC_CLASS MLC_WIND MLC_PRES USA_GUST BOM_GUST BOM_GUST_PER REUNION_GUST REUNION_GUST_PER USA_SEAHGT USA_SEARAD_NE USA_SEARAD_SE USA_SEARAD_SW USA_SEARAD_NW STORM_SPEED STORM_DIR
2022174N06341 2022 32 NA NA BONNIE 2022-06-22 18:00:00 NR 6.20000 -18.9000 PROVISIONAL 660 660 O_____________ nhc_working_bt AL022022 6.20000 -18.9000 DB 15 -3 5 295
2022174N06341 2022 32 NA NA BONNIE 2022-06-22 21:00:00 NR 6.29989 -19.1175 PROVISIONAL 668 668 P_____________ AL022022 6.29989 -19.1175 DB 15 -3 6 289
2022174N06341 2022 32 NA NA BONNIE 2022-06-23 00:00:00 NR 6.40000 -19.5000 PROVISIONAL 695 695 O_____________ nhc_working_bt AL022022 6.40000 -19.5000 DB 15 -3 10 281
2022174N06341 2022 32 NA NA BONNIE 2022-06-23 03:00:00 NR 6.50013 -20.1475 PROVISIONAL 736 736 P_____________ AL022022 6.50013 -20.1475 DB 15 -3 14 278
2022174N06341 2022 32 NA NA BONNIE 2022-06-23 06:00:00 NR 6.60000 -20.9000 PROVISIONAL 784 784 O_____________ nhc_working_bt AL022022 6.60000 -20.9000 DB 15 -3 14 278
2022174N06341 2022 32 NA NA BONNIE 2022-06-23 09:00:00 NR 6.70735 -21.5500 PROVISIONAL 820 827 P_____________ AL022022 6.70735 -21.5500 DB 15 -3 13 279
2022174N06341 2022 32 NA NA BONNIE 2022-06-23 12:00:00 NR 6.80000 -22.2000 PROVISIONAL 862 862 O_____________ nhc_working_bt AL022022 6.80000 -22.2000 DB 15 -3 13 276
2022174N06341 2022 32 NA NA BONNIE 2022-06-23 15:00:00 NR 6.85736 -22.8776 PROVISIONAL 909 909 P_____________ AL022022 6.85736 -22.8776 DB 15 -3 14 274
2022174N06341 2022 32 NA NA BONNIE 2022-06-23 18:00:00 NR 6.90000 -23.6000 PROVISIONAL 967 967 O_____________ nhc_working_bt AL022022 6.90000 -23.6000 DB 15 1012 -3 1014 200 50 14 272
2022174N06341 2022 32 NA NA BONNIE 2022-06-23 21:00:00 NR 6.91963 -24.3328 PROVISIONAL 1027 1027 P_____________ AL022022 6.91963 -24.3328 DB 17 1012 -3 1014 200 60 16 274
2022174N06341 2022 32 NA NA BONNIE 2022-06-24 00:00:00 NR 7.00000 -25.2000 PROVISIONAL 1101 1101 O_____________ nhc_working_bt AL022022 7.00000 -25.2000 DB 20 1012 -3 1014 200 70 20 279
2022174N06341 2022 32 NA NA BONNIE 2022-06-24 03:00:00 NR 7.24278 -26.3272 PROVISIONAL 1193 1193 P_____________ AL022022 7.24278 -26.3272 DB 20 1012 -3 1014 200 70 23 282
2022174N06341 2022 32 NA NA BONNIE 2022-06-24 06:00:00 NR 7.50000 -27.5000 PROVISIONAL 1294 1294 O_____________ nhc_working_bt AL022022 7.50000 -27.5000 DB 20 1012 -3 1014 200 70 22 281
2022174N06341 2022 32 NA NA BONNIE 2022-06-24 09:00:00 NR 7.63698 -28.4651 PROVISIONAL 1389 1389 P_____________ AL022022 7.63698 -28.4651 DB 20 1012 -3 1013 200 70 19 276
2022174N06341 2022 32 NA NA BONNIE 2022-06-24 12:00:00 NR 7.70000 -29.4000 PROVISIONAL 1477 1477 O_____________ nhc_working_bt AL022022 7.70000 -29.4000 DB 20 1012 -3 1013 200 70 20 272
2022174N06341 2022 32 NA NA BONNIE 2022-06-24 15:00:00 NR 7.70019 -30.4876 PROVISIONAL 1542 1491 P_____________ AL022022 7.70019 -30.4876 DB 20 1012 -3 1013 200 85 21 270
2022174N06341 2022 32 NA NA BONNIE 2022-06-24 18:00:00 NR 7.70000 -31.5000 PROVISIONAL 1491 1457 O_____________ nhc_working_bt AL022022 7.70000 -31.5000 DB 20 1012 -3 1013 200 100 18 273
2022174N06341 2022 32 NA NA BONNIE 2022-06-24 21:00:00 NR 7.78462 -32.2599 PROVISIONAL 1451 1427 P_____________ AL022022 7.78462 -32.2599 DB 20 1011 -3 1013 200 100 14 278
2022174N06341 2022 32 NA NA BONNIE 2022-06-25 00:00:00 NR 7.90000 -32.9000 PROVISIONAL 1427 1405 O_____________ nhc_working_bt AL022022 7.90000 -32.9000 DB 20 1011 -3 1013 200 100 13 280
2022174N06341 2022 32 NA NA BONNIE 2022-06-25 03:00:00 NR 8.00743 -33.5725 PROVISIONAL 1400 1380 P_____________ AL022022 8.00743 -33.5725 DB 20 1011 -3 1013 200 100 13 279
2022174N06341 2022 32 NA NA BONNIE 2022-06-25 06:00:00 NR 8.10000 -34.2000 PROVISIONAL 1380 1365 O_____________ nhc_working_bt AL022022 8.10000 -34.2000 DB 20 1011 -3 1013 200 100 12 278
2022174N06341 2022 32 NA NA BONNIE 2022-06-25 09:00:00 NR 8.17218 -34.7275 PROVISIONAL 1366 1340 P_____________ AL022022 8.17218 -34.7275 DB 20 1011 -3 1013 200 100 11 275
2022174N06341 2022 32 NA NA BONNIE 2022-06-25 12:00:00 NR 8.20000 -35.3000 PROVISIONAL 1340 1313 O_____________ nhc_working_bt AL022022 8.20000 -35.3000 DB 20 1011 -3 1013 200 100 13 270
2022174N06341 2022 32 NA NA BONNIE 2022-06-25 15:00:00 NR 8.16513 -36.0776 PROVISIONAL 1309 1273 P_____________ AL022022 8.16513 -36.0776 DB 20 1011 -3 1013 200 100 16 266
2022174N06341 2022 32 NA NA BONNIE 2022-06-25 18:00:00 NR 8.10000 -36.9000 PROVISIONAL 1273 1258 O_____________ nhc_working_bt AL022022 8.10000 -36.9000 DB 20 1011 -3 1013 200 100 15 266
2022174N06341 2022 32 NA NA BONNIE 2022-06-25 21:00:00 NR 8.05694 -37.5550 PROVISIONAL 1256 1232 P_____________ AL022022 8.05694 -37.5550 DB 20 1011 -3 1013 200 100 14 266
2022174N06341 2022 32 NA NA BONNIE 2022-06-26 00:00:00 NR 8.00000 -38.3000 PROVISIONAL 1232 1211 O_____________ nhc_working_bt AL022022 8.00000 -38.3000 DB 20 1011 -3 1013 200 100 18 265
2022174N06341 2022 32 NA NA BONNIE 2022-06-26 03:00:00 NR 7.89256 -39.3327 PROVISIONAL 1211 1155 P_____________ AL022022 7.89256 -39.3327 DB 22 1010 -3 1013 200 100 22 265
2022174N06341 2022 32 NA NA BONNIE 2022-06-26 06:00:00 NR 7.80000 -40.5000 PROVISIONAL 1150 1104 O_____________ nhc_working_bt AL022022 7.80000 -40.5000 DB 25 1010 -3 1013 200 100 23 267
2022174N06341 2022 32 NA NA BONNIE 2022-06-26 09:00:00 NR 7.78508 -41.6873 PROVISIONAL 1101 1029 P_____________ AL022022 7.78508 -41.6873 DB 25 1009 -3 1013 200 95 23 270
2022174N06341 2022 32 NA NA BONNIE 2022-06-26 12:00:00 NR 7.80000 -42.8000 PROVISIONAL 1019 928 O_____________ nhc_working_bt AL022022 7.80000 -42.8000 DB 25 1009 -3 1013 200 90 20 270
2022174N06341 2022 32 NA NA BONNIE 2022-06-26 15:00:00 NR 7.79226 -43.7399 PROVISIONAL 928 848 P_____________ AL022022 7.79226 -43.7399 DB 27 1008 -3 1013 200 90 17 270
2022174N06341 2022 32 NA NA BONNIE 2022-06-26 18:00:00 NR 7.80000 -44.5000 PROVISIONAL 848 799 O_____________ nhc_working_bt AL022022 7.80000 -44.5000 DB 30 1007 -3 1013 200 90 13 272
2022174N06341 2022 32 NA NA BONNIE 2022-06-26 21:00:00 NR 7.84193 -45.0350 PROVISIONAL 799 748 P_____________ AL022022 7.84193 -45.0350 DB 30 1007 -3 1012 175 90 11 275
2022174N06341 2022 32 NA NA BONNIE 2022-06-27 00:00:00 NR 7.90000 -45.6000 PROVISIONAL 748 666 O_____________ nhc_working_bt AL022022 7.90000 -45.6000 DB 30 1007 -3 1011 150 90 40 15 274
2022174N06341 2022 32 NA NA BONNIE 2022-06-27 03:00:00 NR 7.94282 -46.5201 PROVISIONAL 666 598 P_____________ AL022022 7.94282 -46.5201 DB 30 1007 -3 1011 150 90 19 273
2022174N06341 2022 32 NA NA BONNIE 2022-06-27 06:00:00 NR 8.00000 -47.5000 PROVISIONAL 590 546 O_____________ nhc_working_bt AL022022 8.00000 -47.5000 DB 30 1008 -3 1011 150 90 40 18 275
2022174N06341 2022 32 NA NA BONNIE 2022-06-27 09:00:00 NR 8.09968 -48.2799 PROVISIONAL 539 505 P_____________ AL022022 8.09968 -48.2799 DB 30 1008 -3 1011 150 90 15 278
2022174N06341 2022 32 NA NA BONNIE 2022-06-27 12:00:00 NR 8.20000 -49.0000 PROVISIONAL 505 464 O_____________ nhc_working_bt AL022022 8.20000 -49.0000 DB 30 1009 -3 1012 150 90 40 15 276
2022174N06341 2022 32 NA NA BONNIE 2022-06-27 15:00:00 NR 8.24986 -49.7501 PROVISIONAL 456 423 P_____________ AL022022 8.24986 -49.7501 DB 32 1009 -3 1012 150 70 14 275
2022174N06341 2022 32 NA NA BONNIE 2022-06-27 18:00:00 NR 8.32000 -50.4200 PROVISIONAL 423 394 O_____________ nhc_working_bt AL022022 8.30000 -50.5000 DB 35 1009 -3 50 50 1012 150 50 40 14 275
2022174N06341 2022 32 NA NA BONNIE 2022-06-27 21:00:00 NR 8.37396 -51.1395 PROVISIONAL 394 367 P_____________ AL022022 8.36201 -51.1978 DB 35 1009 -3 50 50 1012 150 50 16 277
2022174N06341 2022 32 NA NA BONNIE 2022-06-28 00:00:00 NR 8.50000 -52.0000 PROVISIONAL 367 344 O_____________ nhc_working_bt AL022022 8.50000 -52.0000 DB 35 1009 -3 50 50 1012 150 50 45 12 60 19 282
2022174N06341 2022 32 NA NA BONNIE 2022-06-28 03:00:00 NR 8.77366 -53.0549 PROVISIONAL 346 339 P_____________ AL022022 8.77752 -53.0399 DB 35 1009 -3 50 50 1012 150 50 12 60 23 285
2022174N06341 2022 32 NA NA BONNIE 2022-06-28 06:00:00 NR 9.10000 -54.2000 PROVISIONAL 358 358 O_____________ nhc_working_bt AL022022 9.10000 -54.2000 DB 35 1009 -3 50 50 1012 150 50 45 12 60 24 284
2022174N06341 2022 32 NA NA BONNIE 2022-06-28 09:00:00 NR 9.36119 -55.3688 PROVISIONAL 392 337 P_____________ AL022022 9.35734 -55.3577 DB 35 1009 -3 50 50 1012 150 50 12 75 23 282
2022174N06341 2022 32 NA NA BONNIE 2022-06-28 12:00:00 NR 9.60000 -56.5000 PROVISIONAL 328 267 O_____________ nhc_working_bt AL022022 9.60000 -56.5000 DB 35 1009 -3 50 50 1012 150 50 45 12 90 21 283
2022174N06341 2022 32 NA NA BONNIE 2022-06-28 15:00:00 NR 9.82016 -57.4417 PROVISIONAL 267 229 P_____________ AL022022 9.84916 -57.5278 DB 35 1009 -3 50 50 1012 150 50 12 90 20 283
2022174N06341 2022 32 NA NA BONNIE 2022-06-28 18:00:00 NR 10.0500 -58.4500 PROVISIONAL 239 142 O_____________ nhc_working_bt AL022022 10.1000 -58.6000 DB 35 1009 -3 50 50 1012 150 50 45 12 90 23 282
2022174N06341 2022 32 NA NA BONNIE 2022-06-28 21:00:00 NR 10.3210 -59.7390 PROVISIONAL 142 0 P_____________ AL022022 10.3494 -59.8254 DB 35 1010 -3 50 50 1012 150 50 12 90 28 281
2022174N06341 2022 32 NA NA BONNIE 2022-06-29 00:00:00 NR 10.6000 -61.2000 PROVISIONAL 0 0 O_____________ nhc_working_bt AL022022 10.6000 -61.2000 DB 35 1011 -3 50 50 1013 150 50 45 12 90 31 280
2022174N06341 2022 32 NA CS BONNIE 2022-06-29 03:00:00 NR 10.8770 -62.8096 PROVISIONAL 22 22 P_____________ AL022022 10.8734 -62.8021 DB 35 1010 -3 50 50 1012 165 50 12 135 31 279
2022174N06341 2022 32 NA CS BONNIE 2022-06-29 06:00:00 NR 11.1000 -64.3000 PROVISIONAL 57 57 O_____________ nhc_working_bt AL022022 11.1000 -64.3000 DB 35 1010 -3 50 50 1012 180 50 45 12 180 60 25 278
2022174N06341 2022 32 NA CS BONNIE 2022-06-29 09:00:00 NR 11.2212 -65.3690 PROVISIONAL 93 78 P_____________ AL022022 11.2211 -65.3403 DB 35 1010 -3 50 50 1012 165 50 12 180 60 19 276
2022174N06341 2022 32 NA CS BONNIE 2022-06-29 12:00:00 NR 11.3000 -66.2500 PROVISIONAL 78 78 O_____________ nhc_working_bt AL022022 11.3000 -66.2000 DB 35 1010 -3 50 50 1013 150 50 45 12 180 60 18 275
2022174N06341 2022 32 NA CS BONNIE 2022-06-29 15:00:00 NR 11.3848 -67.2014 PROVISIONAL 92 46 P_____________ AL022022 11.3849 -67.1727 DB 35 1010 -3 55 55 1013 135 50 12 150 45 18 276
2022174N06341 2022 32 NA CS BONNIE 2022-06-29 18:00:00 NR 11.5000 -68.1000 PROVISIONAL 46 24 O_____________ nhc_working_bt AL022022 11.5000 -68.1000 DB 35 1010 -3 60 60 1013 120 50 45 12 120 30 17 281
2022174N06341 2022 32 NA CS BONNIE 2022-06-29 21:00:00 NR 11.7071 -68.9111 PROVISIONAL 33 10 P_____________ AL022022 11.7070 -68.9148 DB 35 1009 -3 65 60 1013 120 55 12 120 30 16 284
2022174N06341 2022 32 NA CS BONNIE 2022-06-30 00:00:00 NR 11.9000 -69.7000 PROVISIONAL 10 0 O_____________ nhc_working_bt AL022022 11.9000 -69.7000 DB 35 1009 -3 70 60 1013 120 60 45 12 120 30 16 280
2022174N06341 2022 32 NA CS BONNIE 2022-06-30 03:00:00 NR 11.9798 -70.5427 PROVISIONAL 24 0 P_____________ AL022022 11.9798 -70.5427 DB 35 1009 -3 70 60 1012 120 60 12 105 60 17 273
2022174N06341 2022 32 NA NA BONNIE 2022-06-30 06:00:00 NR 12.0000 -71.4000 PROVISIONAL 0 0 O_____________ nhc_working_bt AL022022 12.0000 -71.4000 DB 35 1009 -3 70 60 1012 120 60 45 12 90 90 17 271
2022174N06341 2022 32 NA CS BONNIE 2022-06-30 09:00:00 NR 12.0072 -72.2426 PROVISIONAL 0 0 P_____________ AL022022 12.0072 -72.2426 DB 35 1008 -3 70 60 1011 120 60 12 105 17 270
2022174N06341 2022 32 NA CS BONNIE 2022-06-30 12:00:00 NR 12.0000 -73.1000 PROVISIONAL 46 46 O_____________ nhc_working_bt AL022022 12.0000 -73.1000 DB 35 1008 -3 70 60 1011 120 60 45 12 120 17 270
2022174N06341 2022 32 NA CS BONNIE 2022-06-30 15:00:00 NR 12.0110 -73.9849 PROVISIONAL 89 89 P_____________ AL022022 12.0147 -73.9849 DB 35 1008 -3 70 60 1011 120 60 12 120 18 270
2022174N06341 2022 32 NA CS BONNIE 2022-06-30 18:00:00 NR 12.0000 -74.9000 PROVISIONAL 111 111 O_____________ nhc_working_bt AL022022 12.0000 -74.9000 DB 35 1008 -3 70 60 1011 120 60 45 12 120 18 268
2022174N06341 2022 32 NA CS BONNIE 2022-06-30 21:00:00 NR 11.9436 -75.8575 PROVISIONAL 139 139 P_____________ AL022022 11.9149 -75.8576 DB 35 1006 -3 70 60 1009 135 60 12 120 19 265
2022174N06341 2022 32 NA CS BONNIE 2022-07-01 00:00:00 NR 11.8500 -76.8000 PROVISIONAL 203 195 O_____________ nhc_working_bt AL022022 11.8000 -76.8000 DB 35 1005 -3 70 60 1008 150 60 45 12 120 18 264
2022174N06341 2022 32 NA CS BONNIE 2022-07-01 03:00:00 NR 11.7433 -77.6574 PROVISIONAL 269 244 P_____________ AL022022 11.7145 -77.6573 DB 35 1005 -3 70 60 1008 135 60 12 150 17 261
2022174N06341 2022 32 NA CS BONNIE 2022-07-01 06:00:00 NR 11.6000 -78.5000 PROVISIONAL 244 212 O_____________ nhc_working_bt AL022022 11.6000 -78.5000 DB 35 1005 -3 70 60 1009 120 60 45 12 180 90 18 258
2022174N06341 2022 32 NA CS BONNIE 2022-07-01 09:00:00 NR 11.3775 -79.4153 PROVISIONAL 212 193 P_____________ AL022022 11.3850 -79.4153 DB 35 1005 -3 85 60 1009 120 65 12 180 90 18 257
2022174N06341 2022 32 NA CS BONNIE 2022-07-01 12:00:00 NR 11.2000 -80.3000 PROVISIONAL 201 201 O_____________ nhc_working_bt AL022022 11.2000 -80.3000 DB 35 1005 -3 100 60 1009 120 70 45 12 180 90 16 264
2022174N06341 2022 32 NA CS BONNIE 2022-07-01 15:00:00 NR 11.2172 -81.0795 PROVISIONAL 243 196 P_____________ AL022022 11.1847 -81.0796 DB 37 1004 -3 100 60 1009 120 70 12 165 90 15 272
2022174N06341 2022 32 NA CS BONNIE 2022-07-01 18:00:00 TS 11.2500 -81.8000 PROVISIONAL 196 124 O_____________ nhc_working_bt AL022022 11.2000 -81.8000 TS 40 1004 0 100 60 1009 120 70 50 12 150 90 14 265
2022174N06341 2022 32 NA CS BONNIE 2022-07-01 21:00:00 TS 11.0848 -82.5154 PROVISIONAL 124 49 P_____________ AL022022 11.0848 -82.5153 TS 45 1000 0 100 60 1008 120 40 12 150 90 14 258
2022174N06341 2022 32 NA CS BONNIE 2022-07-02 00:00:00 TS 10.9500 -83.2000 PROVISIONAL 49 0 O_____________ nhc_working_bt AL022022 11.0000 -83.2000 TS 50 996 0 100 15 15 60 10 1008 120 10 55 12 150 90 13 269
2022174N06341 2022 32 NA CS BONNIE 2022-07-02 03:00:00 TS 11.0523 -83.8571 PROVISIONAL 0 0 P_____________ AL022022 11.0848 -83.8572 TS 45 998 0 80 50 1008 120 10 12 150 90 13 281
2022174N06341 2022 32 NA NA BONNIE 2022-07-02 06:00:00 TS 11.2000 -84.5000 PROVISIONAL 0 0 O_____________ nhc_working_bt AL022022 11.2000 -84.5000 TS 40 1000 0 60 40 1008 120 10 50 12 150 90 13 278
2022174N06341 2022 32 NA NA BONNIE 2022-07-02 09:00:00 TS 11.2311 -85.1397 PROVISIONAL 0 0 P_____________ AL022022 11.2147 -85.1276 TS 37 1000 0 60 40 1008 105 10 13 270
2022174N06341 2022 32 EP MM BONNIE 2022-07-02 12:00:00 TS 11.2000 -85.8000 PROVISIONAL 0 0 O_____________ nhc_working_bt AL022022 11.2000 -85.8000 TS 35 1000 0 60 40 1008 90 10 45 14 269
2022174N06341 2022 32 EP MM BONNIE 2022-07-02 15:00:00 TS 11.2000 -86.5850 PROVISIONAL 62 62 P_____________ AL022022 11.2000 -86.5850 TS 40 1000 0 60 40 1008 80 10 16 270
2022174N06341 2022 32 EP MM BONNIE 2022-07-02 18:00:00 TS 11.2000 -87.4000 PROVISIONAL 118 118 O_____________ nhc_working_bt EP042022 11.2000 -87.4000 TS 45 1000 0 60 20 20 40 1008 70 10 15 269
2022174N06341 2022 32 EP MM BONNIE 2022-07-02 21:00:00 TS 11.1773 -88.1577 PROVISIONAL 180 180 P_____________ EP042022 11.1773 -88.1577 TS 47 998 0 60 25 25 45 1008 70 10 15 270
2022174N06341 2022 32 EP MM BONNIE 2022-07-03 00:00:00 TS 11.2000 -88.9000 PROVISIONAL 224 219 O_____________ nhc_working_bt EP042022 11.2000 -88.9000 TS 50 997 0 60 30 30 50 20 10 10 20 1008 70 10 60 15 276
2022174N06341 2022 32 EP MM BONNIE 2022-07-03 03:00:00 TS 11.3273 -89.6499 PROVISIONAL 229 228 P_____________ EP042022 11.3273 -89.6499 TS 50 997 0 60 30 30 55 20 20 1008 80 15 15 282
2022174N06341 2022 32 EP MM BONNIE 2022-07-03 06:00:00 TS 11.5000 -90.4000 PROVISIONAL 233 233 O_____________ nhc_working_bt EP042022 11.5000 -90.4000 TS 50 997 0 60 30 30 60 20 20 1008 90 20 60 15 282
2022174N06341 2022 32 EP MM BONNIE 2022-07-03 09:00:00 TS 11.6422 -91.1427 PROVISIONAL 255 239 P_____________ EP042022 11.6422 -91.1427 TS 52 996 0 60 30 30 60 20 20 1008 90 20 15 282
2022174N06341 2022 32 EP MM BONNIE 2022-07-03 12:00:00 TS 11.8000 -91.9000 PROVISIONAL 243 243 O_____________ nhc_working_bt EP042022 11.8000 -91.9000 TS 55 995 0 60 30 30 60 20 20 1008 90 20 65 12 45 30 16 282
2022174N06341 2022 32 EP MM BONNIE 2022-07-03 15:00:00 TS 11.9701 -92.7226 PROVISIONAL 261 261 P_____________ EP042022 11.9701 -92.7226 TS 57 994 0 65 40 30 60 25 25 1008 90 17 12 67 30 16 284
2022174N06341 2022 32 EP MM BONNIE 2022-07-03 18:00:00 TS 12.2000 -93.5000 PROVISIONAL 289 288 O_____________ nhc_working_bt EP042022 12.2000 -93.5000 TS 60 993 0 70 50 30 60 30 20 30 1008 90 15 75 12 90 45 30 15 293
2022174N06341 2022 32 EP MM BONNIE 2022-07-03 21:00:00 TS 12.5419 -94.0926 PROVISIONAL 303 295 P_____________ EP042022 12.5419 -94.0926 TS 65 990 1 70 55 30 60 35 25 30 10 7 1008 90 15 12 90 45 37 14 301
2022174N06341 2022 32 EP MM BONNIE 2022-07-04 00:00:00 TS 12.9000 -94.7000 PROVISIONAL 318 289 O_____________ nhc_working_bt EP042022 12.9000 -94.7000 HU 70 987 1 70 60 30 60 40 30 30 20 15 1008 90 15 85 12 90 45 30 45 15 295
2022174N06341 2022 32 EP MM BONNIE 2022-07-04 03:00:00 TS 13.1875 -95.5050 PROVISIONAL 289 248 P_____________ EP042022 13.1875 -95.5050 HU 70 987 1 70 60 30 60 40 30 30 20 15 1008 90 15 12 105 52 30 45 17 287
2022174N06341 2022 32 EP MM BONNIE 2022-07-04 06:00:00 TS 13.4000 -96.4000 PROVISIONAL 247 235 O_____________ nhc_working_bt EP042022 13.4000 -96.4000 HU 70 987 1 70 60 30 60 40 30 30 20 15 1009 90 15 85 12 120 60 30 45 18 281
2022174N06341 2022 32 EP MM BONNIE 2022-07-04 09:00:00 TS 13.5301 -97.3302 PROVISIONAL 246 243 P_____________ EP042022 13.5301 -97.3302 HU 72 985 1 75 65 35 65 40 30 30 20 15 1009 90 15 12 120 75 30 45 18 277
2022174N06341 2022 32 EP MM BONNIE 2022-07-04 12:00:00 TS 13.6000 -98.2000 PROVISIONAL 272 272 O_____________ nhc_working_bt EP042022 13.6000 -98.2000 HU 75 984 1 80 70 40 70 40 30 20 30 20 15 10 15 1009 90 15 90 12 120 90 30 45 15 273
2022174N06341 2022 32 EP MM BONNIE 2022-07-04 15:00:00 TS 13.6195 -98.8879 PROVISIONAL 293 293 P_____________ EP042022 13.6195 -98.8879 HU 80 981 1 80 70 40 70 40 30 20 30 20 15 10 15 1009 90 15 13 275
2022174N06341 2022 32 EP MM BONNIE 2022-07-04 18:00:00 TS 13.7000 -99.5000 PROVISIONAL 306 302 O_____________ nhc_working_bt EP042022 13.7000 -99.5000 HU 85 978 2 80 70 40 70 40 30 20 30 20 15 10 15 1009 90 15 105 13 286
2022174N06341 2022 32 EP MM BONNIE 2022-07-04 21:00:00 TS 13.9696 -100.127 PROVISIONAL 303 289 P_____________ EP042022 13.9696 -100.127 HU 87 976 2 80 70 40 70 40 30 20 30 20 15 10 15 1009 90 15 14 295
2022174N06341 2022 32 EP MM BONNIE 2022-07-05 00:00:00 TS 14.3000 -100.800 PROVISIONAL 293 292 O_____________ nhc_working_bt EP042022 14.3000 -100.800 HU 90 974 2 80 70 40 70 40 30 20 30 20 15 10 15 1009 90 15 110 12 150 120 30 60 16 293
2022174N06341 2022 32 EP MM BONNIE 2022-07-05 03:00:00 TS 14.5727 -101.600 PROVISIONAL 303 303 P_____________ EP042022 14.5727 -101.600 HU 90 973 2 85 75 40 70 40 30 20 30 20 15 10 15 1009 90 15 12 150 105 30 60 16 288
2022174N06341 2022 32 EP MM BONNIE 2022-07-05 06:00:00 TS 14.8000 -102.400 PROVISIONAL 312 312 O_____________ nhc_working_bt EP042022 14.8000 -102.400 HU 90 972 2 90 80 40 70 40 30 20 30 20 15 10 15 1009 90 15 110 12 150 90 30 60 15 285
2022174N06341 2022 32 EP MM BONNIE 2022-07-05 09:00:00 TS 14.9645 -103.065 PROVISIONAL 334 334 P_____________ EP042022 14.9645 -103.065 HU 95 968 2 90 80 45 75 40 35 25 35 22 17 12 17 1009 90 15 12 150 90 37 67 13 283
2022174N06341 2022 32 EP MM BONNIE 2022-07-05 12:00:00 TS 15.1000 -103.700 PROVISIONAL 345 341 O_____________ nhc_working_bt EP042022 15.1000 -103.700 HU 100 964 3 90 80 50 80 40 40 30 40 25 20 15 20 1009 90 15 120 12 150 90 45 75 13 283
2022174N06341 2022 32 EP MM BONNIE 2022-07-05 15:00:00 TS 15.2574 -104.400 PROVISIONAL 348 348 P_____________ EP042022 15.2574 -104.400 HU 100 964 3 90 80 50 80 40 40 30 40 25 20 15 20 1009 95 15 12 165 90 52 82 14 283
2022174N06341 2022 32 EP MM BONNIE 2022-07-05 18:00:00 TS 15.4000 -105.100 PROVISIONAL 366 366 O_____________ nhc_working_bt EP042022 15.4000 -105.100 HU 100 964 3 90 80 50 80 40 40 30 40 25 20 15 20 1010 100 15 120 12 180 90 60 90 13 281
2022174N06341 2022 32 EP MM BONNIE 2022-07-05 21:00:00 TS 15.5073 -105.765 PROVISIONAL 397 397 P_____________ EP042022 15.5073 -105.765 HU 97 966 3 90 80 50 80 40 40 30 40 22 20 15 20 1009 110 15 12 180 90 75 105 13 279
2022174N06341 2022 32 EP MM BONNIE 2022-07-06 00:00:00 TS 15.6000 -106.400 PROVISIONAL 431 431 O_____________ nhc_working_bt EP042022 15.6000 -106.400 HU 95 968 2 90 80 50 80 40 40 30 40 20 20 15 20 1009 120 15 115 12 180 90 90 120 12 279
2022174N06341 2022 32 EP MM BONNIE 2022-07-06 03:00:00 TS 15.7000 -107.038 PROVISIONAL 455 455 P_____________ EP042022 15.7000 -107.038 HU 92 968 2 85 75 50 80 40 40 30 40 20 20 15 20 1009 120 15 12 165 90 90 120 12 280
2022174N06341 2022 32 EP MM BONNIE 2022-07-06 06:00:00 TS 15.8000 -107.600 PROVISIONAL 482 482 O_____________ nhc_working_bt EP042022 15.8000 -107.600 HU 90 968 2 80 70 50 80 40 40 30 40 20 20 15 20 1009 120 15 110 12 150 90 90 120 10 282
2022174N06341 2022 32 EP MM BONNIE 2022-07-06 09:00:00 TS 15.8921 -108.008 PROVISIONAL 501 501 P_____________ EP042022 15.8921 -108.008 HU 90 969 2 70 60 45 75 30 30 20 40 15 15 15 1009 120 12 12 150 90 75 120 8 285
2022174N06341 2022 32 EP MM BONNIE 2022-07-06 12:00:00 TS 16.0000 -108.400 PROVISIONAL 523 523 O_____________ nhc_working_bt EP042022 16.0000 -108.400 HU 90 970 2 60 50 40 70 20 20 10 40 10 10 10 1009 120 10 105 12 150 90 60 120 9 286
2022174N06341 2022 32 EP MM BONNIE 2022-07-06 15:00:00 TS 16.1425 -108.920 PROVISIONAL 554 553 P_____________ EP042022 16.1425 -108.920 HU 90 971 2 65 55 45 70 25 25 15 40 10 10 10 1009 120 10 12 150 90 60 120 11 286
2022174N06341 2022 32 EP MM BONNIE 2022-07-06 18:00:00 TS 16.3000 -109.500 PROVISIONAL 584 584 O_____________ nhc_working_bt EP042022 16.3000 -109.500 HU 90 972 2 70 60 50 70 30 30 20 40 10 10 10 1010 120 10 110 12 150 90 60 120 12 285
2022174N06341 2022 32 EP MM BONNIE 2022-07-06 21:00:00 TS 16.4500 -110.100 PROVISIONAL 627 620 P_____________ EP042022 16.4500 -110.100 HU 87 974 2 70 60 50 70 30 30 20 40 10 10 10 1010 135 10 12 150 90 75 135 12 285
2022174N06341 2022 32 EP MM BONNIE 2022-07-07 00:00:00 TS 16.6000 -110.700 PROVISIONAL 667 667 O_____________ nhc_working_bt EP042022 16.6000 -110.700 HU 85 977 2 70 60 50 70 30 30 20 40 10 10 10 1010 150 10 105 12 150 90 90 150 11 285
2022174N06341 2022 32 EP MM BONNIE 2022-07-07 03:00:00 TS 16.7497 -111.243 PROVISIONAL 704 691 P_____________ EP042022 16.7497 -111.243 HU 82 978 1 65 50 45 65 30 30 20 40 10 10 10 1010 150 10 12 135 90 90 135 11 287
2022174N06341 2022 32 EP MM BONNIE 2022-07-07 06:00:00 TS 16.9200 -111.780 PROVISIONAL 696 689 O_____________ nhc_working_bt EP042022 16.9000 -111.800 HU 80 980 1 60 40 40 60 30 30 20 40 11 11 11 1010 150 10 100 12 120 90 90 120 12 286
2022174N06341 2022 32 EP MM BONNIE 2022-07-07 09:00:00 TS 17.0651 -112.420 PROVISIONAL 695 695 P_____________ EP042022 17.0499 -112.428 HU 80 980 1 60 40 40 60 30 30 20 40 11 11 11 1009 150 10 12 120 90 90 120 13 283
2022174N06341 2022 32 EP MM BONNIE 2022-07-07 12:00:00 TS 17.2000 -113.100 PROVISIONAL 714 714 O_____________ nhc_working_bt EP042022 17.2000 -113.100 HU 80 980 1 60 40 40 60 30 30 20 40 11 11 11 1009 150 10 100 12 120 90 90 120 13 282
2022174N06341 2022 32 EP MM BONNIE 2022-07-07 15:00:00 TS 17.3309 -113.782 PROVISIONAL 741 737 P_____________ EP042022 17.3347 -113.778 HU 80 980 1 60 45 45 60 35 30 20 40 13 11 11 1009 150 10 12 120 75 75 105 14 283
2022174N06341 2022 32 EP MM BONNIE 2022-07-07 18:00:00 TS 17.5000 -114.500 PROVISIONAL 764 764 O_____________ nhc_working_bt EP042022 17.5000 -114.500 HU 80 980 1 60 50 50 60 40 30 20 40 15 11 11 1009 150 10 100 12 120 60 60 90 15 287
2022174N06341 2022 32 EP MM BONNIE 2022-07-07 21:00:00 TS 17.7724 -115.284 PROVISIONAL 793 793 P_____________ EP042022 17.7724 -115.284 HU 80 980 1 60 50 50 60 40 30 20 40 17 13 13 1008 135 12 12 112 75 60 75 16 288
2022174N06341 2022 32 EP MM BONNIE 2022-07-08 00:00:00 TS 18.0000 -116.100 PROVISIONAL 838 838 O_____________ nhc_working_bt EP042022 18.0000 -116.100 HU 80 980 1 60 50 50 60 40 30 20 40 20 15 15 1008 120 15 100 12 105 90 60 60 16 279
2022174N06341 2022 32 EP MM BONNIE 2022-07-08 03:00:00 TS 18.0221 -116.893 PROVISIONAL 898 898 P_____________ EP042022 18.0222 -116.901 HU 77 981 1 60 50 50 60 40 30 20 40 20 15 15 1008 120 15 12 105 97 75 67 15 270
2022174N06341 2022 32 EP MM BONNIE 2022-07-08 06:00:00 TS 18.0000 -117.700 PROVISIONAL 947 947 O_____________ nhc_working_bt EP042022 18.0000 -117.700 HU 75 982 1 60 50 50 60 40 30 20 40 20 15 15 1008 120 15 90 12 105 105 90 75 16 272
2022174N06341 2022 32 EP MM BONNIE 2022-07-08 09:00:00 TS 18.0774 -118.557 PROVISIONAL 998 998 P_____________ EP042022 18.0772 -118.500 HU 70 984 1 60 50 50 60 40 30 20 40 20 15 15 1008 120 15 12 105 105 82 75 16 277
2022174N06341 2022 32 EP MM BONNIE 2022-07-08 12:00:00 TS 18.2000 -119.400 PROVISIONAL 1047 1047 O_____________ nhc_working_bt EP042022 18.2000 -119.300 HU 65 987 1 60 50 50 60 40 30 20 40 20 15 15 1008 120 15 80 12 105 105 75 75 15 279
2022174N06341 2022 32 EP MM BONNIE 2022-07-08 15:00:00 TS 18.3266 -120.135 PROVISIONAL 1092 1092 P_____________ EP042022 18.3269 -120.078 HU 60 992 0 60 45 45 55 35 25 20 35 1009 125 17 12 97 97 67 75 15 282
2022174N06341 2022 32 EP MM BONNIE 2022-07-08 18:00:00 TS 18.5000 -120.900 PROVISIONAL 1141 1141 O_____________ nhc_working_bt EP042022 18.5000 -120.900 TS 55 998 0 60 40 40 50 30 20 20 30 1010 130 20 65 12 90 90 60 75 17 285
2022174N06341 2022 32 EP MM BONNIE 2022-07-08 21:00:00 TS 18.7576 -121.827 PROVISIONAL 1195 1195 P_____________ EP042022 18.7575 -121.835 TS 52 999 0 55 40 35 50 25 30 1010 130 20 19 286
2022174N06341 2022 32 EP MM BONNIE 2022-07-09 00:00:00 TS 19.0000 -122.800 PROVISIONAL 1255 1255 O_____________ nhc_working_bt EP042022 19.0000 -122.800 TS 50 1001 0 50 40 30 50 20 30 1010 130 20 60 18 282
2022174N06341 2022 32 EP MM BONNIE 2022-07-09 03:00:00 TS 19.1217 -123.693 PROVISIONAL 1307 1307 P_____________ EP042022 19.1218 -123.701 TS 47 1001 0 50 40 30 50 1010 130 20 17 277
2022174N06341 2022 32 EP MM BONNIE 2022-07-09 06:00:00 TS 19.2000 -124.600 PROVISIONAL 1362 1362 O_____________ nhc_working_bt EP042022 19.2000 -124.600 TS 45 1002 0 50 40 30 50 1010 130 20 55 12 105 90 30 60 18 276
2022174N06341 2022 32 EP MM BONNIE 2022-07-09 09:00:00 TS 19.3073 -125.592 PROVISIONAL 1429 1429 P_____________ EP042022 19.3070 -125.535 TS 42 1003 0 45 35 45 1011 115 20 12 105 82 30 60 19 276
2022174N06341 2022 32 EP MM BONNIE 2022-07-09 12:00:00 TS 19.4000 -126.600 PROVISIONAL 1500 1500 O_____________ nhc_working_bt EP042022 19.4000 -126.500 TS 40 1005 0 40 30 40 1012 100 20 50 12 105 75 30 60 19 275
2022174N06341 2022 32 EP MM BONNIE 2022-07-09 15:00:00 TS 19.4608 -127.565 PROVISIONAL 1575 1575 P_____________ EP042022 19.4611 -127.492 TS 40 1006 0 40 40 1013 100 22 18 273
2022174N06341 2022 32 EP MM BONNIE 2022-07-09 18:00:00 DS 19.5000 -128.500 PROVISIONAL 1650 O_____________ nhc_working_bt EP042022 19.5000 -128.500 LO 40 1008 -3 40 40 1014 100 25 50 18 273

IBTrACS Databaseについて

本データベースは、米国NOAAが公開する1842年以降の世界の熱帯低気圧のベストトラックデータアーカイブInternational Best Track Archive for Climate Stewardship (IBTrACS)を、ウェブで閲覧しやすい形式に変換したものです。

最終更新日:2022-08-18